createdAt,value
2023-03-23T00:01:46.900Z,89.80
2023-03-23T00:04:14.803Z,89.44
2023-03-23T00:06:49.470Z,89.43
2023-03-23T00:09:23.321Z,89.30
2023-03-23T00:11:51.800Z,89.20
2023-03-23T00:14:30.501Z,88.86
2023-03-23T00:16:57.318Z,88.82
2023-03-23T00:19:30.533Z,88.71
2023-03-23T00:21:57.509Z,88.66
2023-03-23T00:24:33.861Z,88.71
2023-03-23T00:27:07.883Z,88.05
2023-03-23T00:29:42.073Z,88.22
2023-03-23T00:32:20.418Z,88.00
2023-03-23T00:34:49.543Z,88.04
2023-03-23T00:37:19.402Z,87.97
2023-03-23T00:39:54.471Z,88.21
2023-03-23T00:42:29.362Z,88.03
2023-03-23T00:45:10.910Z,87.81
2023-03-23T00:47:38.884Z,87.71
2023-03-23T00:50:13.631Z,87.65
2023-03-23T00:52:42.354Z,87.64
2023-03-23T00:55:10.698Z,87.39
2023-03-23T00:57:44.436Z,87.12
2023-03-23T01:00:13.101Z,87.36
2023-03-23T01:02:48.379Z,86.92
2023-03-23T01:05:17.067Z,87.02
2023-03-23T01:07:52.730Z,86.97
2023-03-23T01:10:21.147Z,86.55
2023-03-23T01:12:55.605Z,86.45
2023-03-23T01:15:23.151Z,86.54
2023-03-23T01:17:56.897Z,86.67
2023-03-23T01:20:31.355Z,86.59
2023-03-23T01:23:08.493Z,86.37
2023-03-23T01:25:44.591Z,86.12
2023-03-23T01:28:12.910Z,86.08
2023-03-23T01:30:46.610Z,85.91
2023-03-23T01:33:13.905Z,85.95
2023-03-23T01:35:47.549Z,85.71
2023-03-23T01:38:15.394Z,85.80
2023-03-23T01:40:49.689Z,86.00
2023-03-23T01:43:22.800Z,85.91
2023-03-23T01:45:56.336Z,85.69
2023-03-23T01:48:31.736Z,84.97
2023-03-23T01:51:21.609Z,84.89
2023-03-23T01:54:03.449Z,85.32
2023-03-23T01:56:45.504Z,85.30
2023-03-23T01:59:14.546Z,85.16
2023-03-23T02:01:53.414Z,85.22
2023-03-23T02:04:22.766Z,85.09
2023-03-23T02:06:56.421Z,84.98
2023-03-23T02:09:23.894Z,85.28
2023-03-23T02:12:01.674Z,84.96
2023-03-23T02:14:30.487Z,84.58
2023-03-23T02:17:20.465Z,84.47
2023-03-23T02:20:19.798Z,84.63
2023-03-23T02:23:20.541Z,84.33
2023-03-23T02:26:02.691Z,83.77
2023-03-23T02:28:37.357Z,83.58
2023-03-23T02:31:19.471Z,83.41
2023-03-23T02:34:30.550Z,82.91
2023-03-23T02:37:31.984Z,83.34
2023-03-23T02:40:37.506Z,83.05
2023-03-23T02:43:22.365Z,82.47
2023-03-23T02:46:02.993Z,82.51
2023-03-23T02:48:38.393Z,82.47
2023-03-23T02:51:07.371Z,82.42
2023-03-23T02:53:44.435Z,82.48
2023-03-23T02:56:14.691Z,82.59
2023-03-23T02:58:49.366Z,82.71
2023-03-23T03:01:33.875Z,82.80
2023-03-23T03:04:14.612Z,82.89
2023-03-23T03:07:09.590Z,83.10
2023-03-23T03:10:07.470Z,83.35
2023-03-23T03:13:09.070Z,83.35
2023-03-23T03:15:56.539Z,83.37
2023-03-23T03:18:36.189Z,83.62
2023-03-23T03:21:14.529Z,83.38
2023-03-23T03:23:44.752Z,84.04
2023-03-23T03:26:25.475Z,83.68
2023-03-23T03:28:52.263Z,83.88
2023-03-23T03:31:29.519Z,83.64
2023-03-23T03:34:03.426Z,83.74
2023-03-23T03:36:42.411Z,83.54
2023-03-23T03:39:17.620Z,83.02
2023-03-23T03:41:45.051Z,82.70
2023-03-23T03:44:25.442Z,82.84
2023-03-23T03:46:52.278Z,82.89
2023-03-23T03:49:26.389Z,82.73
2023-03-23T03:51:53.112Z,82.84
2023-03-23T03:54:26.502Z,83.13
2023-03-23T03:56:58.788Z,82.78
2023-03-23T03:59:34.348Z,83.04
2023-03-23T04:02:07.385Z,82.84
2023-03-23T04:04:34.122Z,82.59
2023-03-23T04:07:09.388Z,82.46
2023-03-23T04:09:42.508Z,82.14
2023-03-23T04:12:09.744Z,82.44
2023-03-23T04:14:36.673Z,82.35
2023-03-23T04:17:10.980Z,82.34
2023-03-23T04:19:45.488Z,82.04
2023-03-23T04:22:18.400Z,82.55
2023-03-23T04:24:56.897Z,82.87
2023-03-23T04:27:32.558Z,83.55
2023-03-23T04:29:59.977Z,84.77
2023-03-23T04:32:37.180Z,85.46
2023-03-23T04:35:12.886Z,85.80
2023-03-23T04:37:48.490Z,86.33
2023-03-23T04:40:17.624Z,86.99
2023-03-23T04:42:54.488Z,87.02
2023-03-23T04:45:29.645Z,87.18
2023-03-23T04:48:05.537Z,87.55
2023-03-23T04:50:34.034Z,86.87
2023-03-23T04:53:12.686Z,86.58
2023-03-23T04:55:46.463Z,86.82
2023-03-23T04:58:22.471Z,86.87
2023-03-23T05:00:52.287Z,86.59
2023-03-23T05:03:26.558Z,85.93
2023-03-23T05:05:54.824Z,85.37
2023-03-23T05:08:30.645Z,84.91
2023-03-23T05:11:06.434Z,85.13
2023-03-23T05:13:38.603Z,85.00
2023-03-23T05:16:13.541Z,84.72
2023-03-23T05:18:40.885Z,84.75
2023-03-23T05:21:14.610Z,84.52
2023-03-23T05:23:42.157Z,84.37
2023-03-23T05:26:16.627Z,84.27
2023-03-23T05:28:43.667Z,83.88
2023-03-23T05:31:17.516Z,84.10
2023-03-23T05:33:44.272Z,83.99
2023-03-23T05:36:21.585Z,84.12
2023-03-23T05:38:49.196Z,84.35
2023-03-23T05:41:23.596Z,83.94
2023-03-23T05:44:11.177Z,84.04
2023-03-23T05:46:44.764Z,83.58
2023-03-23T05:49:13.760Z,83.70
2023-03-23T05:51:47.657Z,83.36
2023-03-23T05:54:15.737Z,83.34
2023-03-23T05:56:50.499Z,83.24
2023-03-23T05:59:24.560Z,82.18
2023-03-23T06:01:59.704Z,82.14
2023-03-23T06:04:28.472Z,82.12
2023-03-23T06:07:01.607Z,82.15
2023-03-23T06:09:28.529Z,82.08
2023-03-23T06:12:02.645Z,81.49
2023-03-23T06:14:36.645Z,81.54
2023-03-23T06:17:04.285Z,81.32
2023-03-23T06:19:37.602Z,81.41
2023-03-23T06:22:06.702Z,81.57
2023-03-23T06:24:40.948Z,81.17
2023-03-23T06:27:18.781Z,81.04
2023-03-23T06:29:46.055Z,80.85
2023-03-23T06:32:20.557Z,80.55
2023-03-23T06:34:48.863Z,79.89
2023-03-23T06:37:24.406Z,79.86
2023-03-23T06:39:59.558Z,79.96
2023-03-23T06:42:33.670Z,80.07
2023-03-23T06:45:15.555Z,79.18
2023-03-23T06:47:42.583Z,79.83
2023-03-23T06:50:16.532Z,79.15
2023-03-23T06:52:54.530Z,78.64
2023-03-23T06:55:26.144Z,78.68
2023-03-23T06:57:59.718Z,79.10
2023-03-23T07:00:26.724Z,78.97
2023-03-23T07:02:59.616Z,79.12
2023-03-23T07:05:32.560Z,79.47
2023-03-23T07:07:59.569Z,79.22
2023-03-23T07:10:32.531Z,79.27
2023-03-23T07:13:02.198Z,79.36
2023-03-23T07:15:35.564Z,79.53
2023-03-23T07:18:15.546Z,79.06
2023-03-23T07:20:42.464Z,79.07
2023-03-23T07:23:16.536Z,79.01
2023-03-23T07:25:51.781Z,78.93
2023-03-23T07:28:19.639Z,79.02
2023-03-23T07:30:53.770Z,79.18
2023-03-23T07:33:20.573Z,79.16
2023-03-23T07:35:54.594Z,79.02
2023-03-23T07:38:21.339Z,79.39
2023-03-23T07:40:55.502Z,79.56
2023-03-23T07:43:29.459Z,80.09
2023-03-23T07:46:02.591Z,80.20
2023-03-23T07:48:29.625Z,79.63
2023-03-23T07:51:03.529Z,79.81
2023-03-23T07:53:30.903Z,79.76
2023-03-23T07:56:04.627Z,80.43
2023-03-23T07:58:31.923Z,81.04
2023-03-23T08:01:05.673Z,81.18
2023-03-23T08:03:32.733Z,81.50
2023-03-23T08:06:09.651Z,81.74
2023-03-23T08:08:44.708Z,81.28
2023-03-23T08:11:13.068Z,81.68
2023-03-23T08:13:46.606Z,80.48
2023-03-23T08:16:14.664Z,80.26
2023-03-23T08:18:48.618Z,79.56
2023-03-23T08:21:21.528Z,79.06
2023-03-23T08:23:54.577Z,78.44
2023-03-23T08:26:22.540Z,78.83
2023-03-23T08:28:55.567Z,78.43
2023-03-23T08:31:22.643Z,77.41
2023-03-23T08:33:55.668Z,78.44
2023-03-23T08:36:22.932Z,77.75
2023-03-23T08:38:59.965Z,77.69
2023-03-23T08:41:27.006Z,76.19
2023-03-23T08:44:07.653Z,75.64
2023-03-23T08:46:34.338Z,76.11
2023-03-23T08:49:07.614Z,75.62
2023-03-23T08:51:35.004Z,75.17
2023-03-23T08:54:01.825Z,75.06
2023-03-23T08:56:35.793Z,75.28
2023-03-23T08:59:02.719Z,75.61
2023-03-23T09:01:35.726Z,74.90
2023-03-23T09:04:02.513Z,74.29
2023-03-23T09:06:35.582Z,73.80
2023-03-23T09:09:03.828Z,74.18
2023-03-23T09:11:37.599Z,74.41
2023-03-23T09:14:06.340Z,75.10
2023-03-23T09:16:40.962Z,75.55
2023-03-23T09:19:16.654Z,75.91
2023-03-23T09:21:49.548Z,76.50
2023-03-23T09:24:23.604Z,77.04
2023-03-23T09:26:50.346Z,77.14
2023-03-23T09:29:24.674Z,78.35
2023-03-23T09:31:51.322Z,77.81
2023-03-23T09:34:24.540Z,77.90
2023-03-23T09:36:51.414Z,77.83
2023-03-23T09:39:24.628Z,77.88
2023-03-23T09:42:09.580Z,78.49
2023-03-23T09:45:10.860Z,77.60
2023-03-23T09:48:12.612Z,77.29
2023-03-23T09:50:50.795Z,77.93
2023-03-23T09:53:23.845Z,77.93
2023-03-23T09:55:58.614Z,78.07
2023-03-23T09:58:33.445Z,77.95
2023-03-23T10:01:14.564Z,78.46
2023-03-23T10:03:44.185Z,77.80
2023-03-23T10:06:20.798Z,77.46
2023-03-23T10:08:57.338Z,76.02
2023-03-23T10:11:30.683Z,75.78
2023-03-23T10:14:08.295Z,75.97
2023-03-23T10:16:47.654Z,76.35
2023-03-23T10:19:25.451Z,75.16
2023-03-23T10:22:04.616Z,74.34
2023-03-23T10:24:44.696Z,73.21
2023-03-23T10:27:23.619Z,74.19
2023-03-23T10:29:56.834Z,74.14
2023-03-23T10:32:51.616Z,72.31
2023-03-23T10:35:23.922Z,70.40
2023-03-23T10:38:04.653Z,70.31
2023-03-23T10:40:34.814Z,68.84
2023-03-23T10:43:08.617Z,68.92
2023-03-23T10:45:48.806Z,69.02
2023-03-23T10:48:39.578Z,69.40
2023-03-23T10:51:14.163Z,67.95
2023-03-23T10:53:53.718Z,68.81
2023-03-23T10:56:25.289Z,67.76
2023-03-23T10:58:58.610Z,66.50
2023-03-23T11:01:40.835Z,66.52
2023-03-23T11:04:20.662Z,66.80
2023-03-23T11:06:58.703Z,67.27
2023-03-23T11:09:37.885Z,65.45
2023-03-23T11:12:12.061Z,63.09
2023-03-23T11:14:40.645Z,62.07
2023-03-23T11:17:33.734Z,63.03
2023-03-23T11:20:19.688Z,59.90
2023-03-23T11:22:53.738Z,61.01
2023-03-23T11:25:20.534Z,60.85
2023-03-23T11:27:54.672Z,61.69
2023-03-23T11:30:28.765Z,61.14
2023-03-23T11:33:06.682Z,59.54
2023-03-23T11:35:39.763Z,57.93
2023-03-23T11:38:14.652Z,58.24
2023-03-23T11:40:55.866Z,59.87
2023-03-23T11:43:33.654Z,58.74
2023-03-23T11:46:24.565Z,59.60
2023-03-23T11:49:25.073Z,60.26
2023-03-23T11:52:00.939Z,60.83
2023-03-23T11:54:46.002Z,59.45
2023-03-23T11:57:14.695Z,59.03
2023-03-23T11:59:48.673Z,57.89
2023-03-23T12:02:21.729Z,57.54
2023-03-23T12:05:22.747Z,56.92
2023-03-23T12:08:24.193Z,56.17
2023-03-23T12:11:15.692Z,55.71
2023-03-23T12:14:01.911Z,55.38
2023-03-23T12:16:59.653Z,56.58
2023-03-23T12:20:17.774Z,55.38
2023-03-23T12:23:17.734Z,55.60
2023-03-23T12:26:11.919Z,56.10
2023-03-23T12:28:53.955Z,54.65
2023-03-23T12:31:46.410Z,56.00
2023-03-23T12:34:47.749Z,55.90
2023-03-23T12:37:24.718Z,55.71
2023-03-23T12:40:23.394Z,56.12
2023-03-23T12:43:03.746Z,57.51
2023-03-23T12:45:54.763Z,58.32
2023-03-23T12:48:33.781Z,59.65
2023-03-23T12:51:14.655Z,60.47
2023-03-23T12:54:12.128Z,59.93
2023-03-23T12:56:56.741Z,58.68
2023-03-23T13:00:18.697Z,58.22
2023-03-23T13:02:53.232Z,57.79
2023-03-23T13:05:32.783Z,59.07
2023-03-23T13:08:06.763Z,59.04
2023-03-23T13:10:42.229Z,59.26
2023-03-23T13:13:24.794Z,59.28
2023-03-23T13:16:20.752Z,59.40
2023-03-23T13:19:04.112Z,59.62
2023-03-23T13:21:44.579Z,60.48
2023-03-23T13:24:25.823Z,60.33
2023-03-23T13:26:53.108Z,60.10
2023-03-23T13:32:26.781Z,58.84
2023-03-23T13:34:55.427Z,59.34
2023-03-23T13:37:33.707Z,60.33
2023-03-23T13:40:18.733Z,61.08
2023-03-23T13:43:01.270Z,62.04
2023-03-23T13:45:52.753Z,64.14
2023-03-23T13:48:23.066Z,65.62
2023-03-23T13:51:00.789Z,65.87
2023-03-23T13:53:44.211Z,66.08
2023-03-23T13:56:40.799Z,65.54
2023-03-23T13:59:31.583Z,68.23
2023-03-23T14:02:46.701Z,69.67
2023-03-23T14:05:32.691Z,69.86
2023-03-23T14:08:33.809Z,72.25
2023-03-23T14:11:06.994Z,73.68
2023-03-23T14:13:44.996Z,75.16
2023-03-23T14:16:24.840Z,74.91
2023-03-23T14:19:07.777Z,75.96
2023-03-23T14:21:47.739Z,76.35
2023-03-23T14:24:25.743Z,76.04
2023-03-23T14:26:54.741Z,75.68
2023-03-23T14:29:28.718Z,76.18
2023-03-23T14:31:58.254Z,75.18
2023-03-23T14:34:28.401Z,74.74
2023-03-23T14:37:05.807Z,72.49
2023-03-23T14:39:35.273Z,71.85
2023-03-23T14:42:15.828Z,68.56
2023-03-23T14:45:04.820Z,66.09
2023-03-23T14:47:39.793Z,65.86
2023-03-23T14:50:29.707Z,67.21
2023-03-23T14:53:03.026Z,67.34
2023-03-23T14:55:38.748Z,65.75
2023-03-23T14:58:16.833Z,67.13
2023-03-23T15:01:13.759Z,66.81
2023-03-23T15:03:50.796Z,68.01
2023-03-23T15:06:28.065Z,69.01
2023-03-23T15:09:04.812Z,69.89
2023-03-23T15:11:40.812Z,69.93
2023-03-23T15:14:31.279Z,70.92
2023-03-23T15:17:06.798Z,72.49
2023-03-23T15:19:38.332Z,74.25
2023-03-23T15:22:27.769Z,73.57
2023-03-23T15:25:14.794Z,74.61
2023-03-23T15:27:44.533Z,75.39
2023-03-23T15:30:35.846Z,76.11
2023-03-23T15:33:11.247Z,77.36
2023-03-23T15:35:48.826Z,77.04
2023-03-23T15:38:31.872Z,77.31
2023-03-23T15:41:08.821Z,76.76
2023-03-23T15:43:49.309Z,76.51
2023-03-23T15:46:31.836Z,76.25
2023-03-23T15:49:01.137Z,75.68
2023-03-23T15:51:37.756Z,75.49
2023-03-23T15:54:14.192Z,74.20
2023-03-23T15:56:48.904Z,73.55
2023-03-23T15:59:21.812Z,73.30
2023-03-23T16:01:49.400Z,72.55
2023-03-23T16:04:25.846Z,73.81
2023-03-23T16:07:02.906Z,72.57
2023-03-23T16:09:35.898Z,73.22
2023-03-23T16:12:08.793Z,73.63
2023-03-23T16:14:42.080Z,73.51
2023-03-23T16:17:20.849Z,72.87
2023-03-23T16:19:48.158Z,72.70
2023-03-23T16:22:21.826Z,72.19
2023-03-23T16:24:48.528Z,72.71
2023-03-23T16:27:23.313Z,71.89
2023-03-23T16:30:04.020Z,72.31
2023-03-23T16:35:10.885Z,72.23
2023-03-23T16:37:44.180Z,71.92
2023-03-23T16:40:13.074Z,72.49
2023-03-23T16:42:46.856Z,71.96
2023-03-23T16:45:21.047Z,71.60
2023-03-23T16:47:54.854Z,71.90
2023-03-23T16:50:21.780Z,71.41
2023-03-23T16:52:54.821Z,70.45
2023-03-23T16:55:21.823Z,70.60
2023-03-23T16:58:01.062Z,70.71
2023-03-23T17:00:36.343Z,71.02
2023-03-23T17:03:10.111Z,71.74
2023-03-23T17:05:38.253Z,71.88
2023-03-23T17:08:06.121Z,72.05
2023-03-23T17:10:39.858Z,71.74
2023-03-23T17:13:12.819Z,72.23
2023-03-23T17:15:51.322Z,72.89
2023-03-23T17:18:18.424Z,72.64
2023-03-23T17:20:51.835Z,72.64
2023-03-23T17:23:19.148Z,72.84
2023-03-23T17:25:54.885Z,73.00
2023-03-23T17:28:29.065Z,73.21
2023-03-23T17:31:02.975Z,73.76
2023-03-23T17:33:29.885Z,73.93
2023-03-23T17:36:02.992Z,74.53
2023-03-23T17:38:36.944Z,74.50
2023-03-23T17:41:15.056Z,74.42
2023-03-23T17:43:42.918Z,74.93
2023-03-23T17:46:17.969Z,75.21
2023-03-23T17:48:50.897Z,75.34
2023-03-23T17:51:17.843Z,75.93
2023-03-23T17:53:50.857Z,75.35
2023-03-23T17:56:25.215Z,76.28
2023-03-23T17:58:58.987Z,76.27
2023-03-23T18:01:26.192Z,76.80
2023-03-23T18:03:59.885Z,76.56
2023-03-23T18:06:29.798Z,76.55
2023-03-23T18:09:02.934Z,76.45
2023-03-23T18:11:36.869Z,77.05
2023-03-23T18:14:09.941Z,77.10
2023-03-23T18:16:36.930Z,77.26
2023-03-23T18:19:09.977Z,77.43
2023-03-23T18:21:45.861Z,77.71
2023-03-23T18:24:13.228Z,77.88
2023-03-23T18:26:47.007Z,78.13
2023-03-23T18:29:14.369Z,78.45
2023-03-23T18:31:48.341Z,78.45
2023-03-23T18:34:15.681Z,78.76
2023-03-23T18:36:56.065Z,78.91
2023-03-23T18:39:23.211Z,78.88
2023-03-23T18:41:50.256Z,79.36
2023-03-23T18:44:23.947Z,79.26
2023-03-23T18:47:04.156Z,79.23
2023-03-23T18:49:33.641Z,79.30
2023-03-23T18:52:08.034Z,79.45
2023-03-23T18:54:42.129Z,79.57
2023-03-23T18:57:15.968Z,79.87
2023-03-23T18:59:49.197Z,79.58
2023-03-23T19:02:18.589Z,79.47
2023-03-23T19:04:53.181Z,79.57
2023-03-23T19:07:21.669Z,79.42
2023-03-23T19:09:55.066Z,79.56
2023-03-23T19:12:22.881Z,79.53
2023-03-23T19:14:58.007Z,79.26
2023-03-23T19:17:26.264Z,79.36
2023-03-23T19:19:59.940Z,79.45
2023-03-23T19:22:26.697Z,79.45
2023-03-23T19:24:53.588Z,79.37
2023-03-23T19:27:26.910Z,79.70
2023-03-23T19:29:53.969Z,79.83
2023-03-23T19:32:28.021Z,79.59
2023-03-23T19:34:55.006Z,79.82
2023-03-23T19:37:34.460Z,79.62
2023-03-23T19:40:24.189Z,79.63
2023-03-23T19:43:02.022Z,79.34
2023-03-23T19:45:45.780Z,79.22
2023-03-23T19:48:19.328Z,79.54
2023-03-23T19:50:51.775Z,80.01
2023-03-23T19:53:26.786Z,79.86
2023-03-23T19:56:00.383Z,79.92
2023-03-23T19:58:35.472Z,79.83
2023-03-23T20:01:03.486Z,79.85
2023-03-23T20:03:30.671Z,79.36
2023-03-23T20:06:10.011Z,79.38
2023-03-23T20:08:43.972Z,78.97
2023-03-23T20:11:20.288Z,78.79
2023-03-23T20:13:55.233Z,78.60
2023-03-23T20:16:22.788Z,78.35
2023-03-23T20:18:56.041Z,78.32
2023-03-23T20:21:33.666Z,77.82
2023-03-23T20:24:07.092Z,78.42
2023-03-23T20:26:38.145Z,78.02
2023-03-23T20:29:12.850Z,77.37
2023-03-23T20:31:48.930Z,77.04
2023-03-23T20:34:35.939Z,77.32
2023-03-23T20:37:10.025Z,76.91
2023-03-23T20:39:36.844Z,76.71
2023-03-23T20:42:13.004Z,76.02
2023-03-23T20:44:53.431Z,75.83
2023-03-23T20:47:27.124Z,75.24
2023-03-23T20:50:06.115Z,74.88
2023-03-23T20:52:42.246Z,74.88
2023-03-23T20:55:09.890Z,74.53
2023-03-23T20:57:45.043Z,74.15
2023-03-23T21:00:17.970Z,74.09
2023-03-23T21:02:52.409Z,73.94
2023-03-23T21:05:21.129Z,73.93
2023-03-23T21:07:56.030Z,73.53
2023-03-23T21:10:25.828Z,73.21
2023-03-23T21:13:00.201Z,73.19
2023-03-23T21:15:27.592Z,73.67
2023-03-23T21:18:01.195Z,74.05
2023-03-23T21:20:36.173Z,74.35
2023-03-23T21:23:08.574Z,74.45
2023-03-23T21:25:43.996Z,74.66
2023-03-23T21:28:12.829Z,75.02
2023-03-23T21:30:52.271Z,75.41
2023-03-23T21:33:20.320Z,75.79
2023-03-23T21:35:54.584Z,76.40
2023-03-23T21:38:27.077Z,76.69
2023-03-23T21:41:02.072Z,77.38
2023-03-23T21:43:32.329Z,78.08
2023-03-23T21:46:32.266Z,78.28
2023-03-23T21:48:59.744Z,78.20
2023-03-23T21:51:37.513Z,78.82
2023-03-23T21:54:05.225Z,78.88
2023-03-23T21:56:39.270Z,79.47
2023-03-23T21:59:08.235Z,79.53
2023-03-23T22:01:37.455Z,80.38
2023-03-23T22:04:12.059Z,80.39
2023-03-23T22:06:38.934Z,80.46
2023-03-23T22:09:13.261Z,81.31
2023-03-23T22:11:40.787Z,81.78
2023-03-23T22:14:14.020Z,81.83
2023-03-23T22:16:42.316Z,82.06
2023-03-23T22:19:16.041Z,82.06
2023-03-23T22:21:42.917Z,82.64
2023-03-23T22:24:16.264Z,82.43
2023-03-23T22:26:43.102Z,83.37
2023-03-23T22:29:18.150Z,82.97
2023-03-23T22:31:45.404Z,83.19
2023-03-23T22:34:20.075Z,83.54
2023-03-23T22:36:48.704Z,83.46
2023-03-23T22:39:22.319Z,83.82
2023-03-23T22:41:49.203Z,84.58
2023-03-23T22:44:27.404Z,84.64
2023-03-23T22:47:02.219Z,84.68
2023-03-23T22:49:36.261Z,85.06
2023-03-23T22:52:10.030Z,85.05
2023-03-23T22:54:36.963Z,85.10
2023-03-23T22:57:12.079Z,85.19
2023-03-23T22:59:39.722Z,85.67
2023-03-23T23:02:13.617Z,85.98
2023-03-23T23:04:42.169Z,85.86
2023-03-23T23:07:21.385Z,86.04
2023-03-23T23:09:48.338Z,85.98
2023-03-23T23:12:22.675Z,85.94
2023-03-23T23:14:50.425Z,85.91
2023-03-23T23:17:24.541Z,86.38
2023-03-23T23:19:51.756Z,86.34
2023-03-23T23:22:26.234Z,86.43
2023-03-23T23:25:00.358Z,86.38
2023-03-23T23:27:34.190Z,86.73
2023-03-23T23:30:01.754Z,86.68
2023-03-23T23:32:39.143Z,86.42
2023-03-23T23:35:06.936Z,86.77
2023-03-23T23:37:34.585Z,86.81
2023-03-23T23:40:08.297Z,86.88
2023-03-23T23:42:36.063Z,87.20
2023-03-23T23:45:10.866Z,87.16
2023-03-23T23:47:39.385Z,87.96
2023-03-23T23:50:07.948Z,87.78
2023-03-23T23:52:42.206Z,88.23
2023-03-23T23:55:17.213Z,88.11
2023-03-23T23:57:45.158Z,88.39
